Flight Track Log - Related Links

Times and Time Zones

All times are in EDT time to prevent confusion due to time zone crossing. See the N30GT flight status page for this flight to view local times or setup timezone preferences in your user account.

Time Position Orientation Groundspeed Altitude Reporting Facility
EDT Latitude Longitude Course Direction KTS MPH feet Rate Location/Type
Tue 03:26:00 PM 30.0863 -84.8559 20° North  Level FlightAware Approximate
Tue 03:27:00 PM 30.1384 -84.8308 23° Northeast  Level FlightAware Approximate
Tue 03:27:27 PM 30.0961 -84.7653 23° Northeast 209 241 14,400  Level Jacksonville Center
Tue 03:28:00 PM 30.1903 -84.8049 23° Northeast  Level FlightAware Approximate
Tue 03:28:27 PM 30.1489 -84.7375 24° Northeast 209 241 15,400  Level Jacksonville Center
Tue 03:29:00 PM 30.2421 -84.7790 23° Northeast  Level FlightAware Approximate
Tue 03:29:27 PM 30.2014 -84.7144 21° North 199 229 16,300  Level Jacksonville Center
Tue 03:30:00 PM 30.2953 -84.7607 23° Northeast  Level FlightAware Approximate
Tue 03:30:27 PM 30.2558 -84.6961 16° North 194 223 17,300  Level Jacksonville Center
Tue 03:31:00 PM 30.3471 -84.7348 23° Northeast  Level FlightAware Approximate
Tue 03:31:27 PM 30.3083 -84.6683 25° Northeast 194 223 17,900  Level Jacksonville Center
Tue 03:32:00 PM 30.3990 -84.7089 23° Northeast  Level FlightAware Approximate
Tue 03:32:27 PM 30.3631 -84.6356 27° Northeast 199 229 18,600  Level Jacksonville Center
Tue 03:33:27 PM 30.4200 -84.6100 21° North 204 235 19,200 600 Climbing Jacksonville Center
Tue 03:34:27 PM 30.4786 -84.5919 15° North 209 241 19,800 600 Climbing Jacksonville Center
Tue 03:35:27 PM 30.5372 -84.5761 13° North 214 246 20,400 500 Climbing Jacksonville Center
Tue 03:36:27 PM 30.5981 -84.5603 13° North 214 246 20,800 400 Climbing Jacksonville Center
Tue 03:37:27 PM 30.6547 -84.5372 19° North 214 246 21,200 350 Climbing Jacksonville Center
Tue 03:38:27 PM 30.7156 -84.5164 16° North 219 252 21,500 300 Climbing Jacksonville Center
Tue 03:39:27 PM 30.7783 -84.5006 12° North 219 252 21,800 250 Climbing Jacksonville Center
Tue 03:40:27 PM 30.8436 -84.4678 23° Northeast 224 258 22,000 250 Climbing Jacksonville Center
Tue 03:41:27 PM 30.9064 -84.4494 14° North 229 264 22,300 250 Climbing Jacksonville Center
Tue 03:42:27 PM 30.9672 -84.4286 16° North 229 264 22,500 200 Climbing Jacksonville Center
Tue 03:43:27 PM 31.0300 -84.4053 18° North 229 264 22,700 250 Climbing Jacksonville Center
Tue 03:44:27 PM 31.0889 -84.3797 20° North 224 258 23,000 150 Climbing Jacksonville Center
Tue 03:45:27 PM 31.1497 -84.3467 25° Northeast 229 264 23,000  Level Jacksonville Center
Tue 03:46:27 PM 31.2106 -84.3136 25° Northeast 235 270 23,000  Level Jacksonville Center
Tue 03:47:27 PM 31.2717 -84.2828 23° Northeast 235 270 23,000  Level Jacksonville Center
Tue 03:48:27 PM 31.3344 -84.2497 24° Northeast 235 270 23,000  Level Jacksonville Center
Tue 03:49:27 PM 31.3975 -84.2167 24° Northeast 235 270 23,000  Level Jacksonville Center
Tue 03:50:27 PM 31.4583 -84.1883 22° Northeast 235 270 23,000  Level Jacksonville Center
Tue 03:52:31 PM 31.5881 -84.1217 24° Northeast 248 285 23,000  Level Atlanta Center
Tue 03:53:31 PM 31.6486 -84.0900 24° Northeast 248 285 23,000  Level Atlanta Center
Tue 03:54:31 PM 31.7111 -84.0583 23° Northeast 248 285 23,000  Level Atlanta Center
Tue 03:55:31 PM 31.7717 -84.0242 26° Northeast 242 278 23,000  Level Atlanta Center
Tue 03:56:31 PM 31.8342 -83.9925 23° Northeast 242 278 23,000  Level Atlanta Center
Tue 03:57:31 PM 31.8947 -83.9606 24° Northeast 237 273 23,000  Level Atlanta Center
Tue 03:58:31 PM 31.9572 -83.9264 25° Northeast 237 273 23,000  Level Atlanta Center
Tue 03:59:31 PM 32.0178 -83.8944 24° Northeast 237 273 23,000  Level Atlanta Center
Tue 04:00:31 PM 32.0806 -83.8600 25° Northeast 237 273 23,000  Level Atlanta Center
Tue 04:01:31 PM 32.1450 -83.8278 23° Northeast 237 273 23,000  Level Atlanta Center
Tue 04:02:31 PM 32.2056 -83.7958 24° Northeast 237 273 23,000  Level Atlanta Center
Tue 04:03:31 PM 32.2681 -83.7636 24° Northeast 237 273 23,000  Level Atlanta Center
Tue 04:04:31 PM 32.3306 -83.7292 25° Northeast 237 273 23,000  Level Atlanta Center
Tue 04:05:31 PM 32.3911 -83.6969 24° Northeast 237 273 23,000  Level Atlanta Center
Tue 04:06:31 PM 32.4536 -83.6622 25° Northeast 237 273 23,000  Level Atlanta Center
Tue 04:07:31 PM 32.5161 -83.6325 22° Northeast 237 273 23,000  Level Atlanta Center
Tue 04:08:31 PM 32.5786 -83.6000 24° Northeast 237 273 23,000  Level Atlanta Center
Tue 04:09:31 PM 32.6328 -83.5703 25° Northeast 237 273 23,000  Level Atlanta Center
Tue 04:10:31 PM 32.6931 -83.5353 26° Northeast 237 273 23,000  Level Atlanta Center
Tue 04:11:31 PM 32.7556 -83.5028 24° Northeast 237 273 23,000  Level Atlanta Center
Tue 04:12:31 PM 32.8181 -83.4728 22° Northeast 237 273 23,000  Level Atlanta Center
Tue 04:13:31 PM 32.8806 -83.4378 25° Northeast 237 273 23,000  Level Atlanta Center
Tue 04:14:31 PM 32.9431 -83.4050 24° Northeast 237 273 23,000  Level Atlanta Center
Tue 04:15:31 PM 33.0033 -83.3725 24° Northeast 237 273 23,000  Level Atlanta Center
Tue 04:16:31 PM 33.0658 -83.3372 25° Northeast 237 273 23,000  Level Atlanta Center
Tue 04:17:31 PM 33.1261 -83.3047 24° Northeast 237 273 23,000  Level Atlanta Center
Tue 04:18:31 PM 33.1886 -83.2694 25° Northeast 237 273 23,000  Level Atlanta Center
Tue 04:19:31 PM 33.2489 -83.2364 25° Northeast 232 267 23,000  Level Atlanta Center
Tue 04:20:31 PM 33.3092 -83.2036 24° Northeast 238 274 23,000  Level Atlanta Center
Tue 04:21:31 PM 33.3758 -83.1681 24° Northeast 238 274 23,000  Level Atlanta Center
Tue 04:22:31 PM 33.4381 -83.1328 25° Northeast 243 280 23,000  Level Atlanta Center
Tue 04:23:31 PM 33.4983 -83.0997 25° Northeast 237 273 23,000  Level Atlanta Center
Tue 04:24:31 PM 33.5586 -83.0667 25° Northeast 237 273 23,000 -350 Level Atlanta Center
Tue 04:25:31 PM 33.6211 -83.0333 24° Northeast 237 273 22,300 -850 Descending Atlanta Center
Tue 04:26:31 PM 33.6897 -82.9953 25° Northeast 251 289 21,300 -1,100 Descending Atlanta Center
Tue 04:27:31 PM 33.7581 -82.9569 25° Northeast 266 306 20,100 -1,350 Descending Atlanta Center
Tue 04:28:31 PM 33.8289 -82.9186 24° Northeast 271 312 18,600 -1,450 Descending Atlanta Center
Tue 04:29:31 PM 33.9056 -82.8775 24° Northeast 276 318 17,200 -1,300 Descending Atlanta Center
Tue 04:30:31 PM 33.9783 -82.8389 24° Northeast 276 318 16,000 -1,100 Descending Atlanta Center
Tue 04:31:31 PM 34.0489 -82.7978 26° Northeast 276 318 15,000 -900 Descending Atlanta Center
Tue 04:32:31 PM 34.1133 -82.7642 23° Northeast 270 311 14,200 -950 Descending Atlanta Center
Tue 04:33:31 PM 34.1858 -82.7256 24° Northeast 273 314 13,100 -1,200 Descending Atlanta Center
Tue 04:34:31 PM 34.2544 -82.6892 24° Northeast 273 314 11,800 -1,050 Descending Atlanta Center
Tue 04:35:31 PM 34.3164 -82.6481 29° Northeast 263 303 11,000 -400 Descending Atlanta Center
Tue 04:36:31 PM 34.3767 -82.6167 23° Northeast 250 288 11,000 -200 Level Atlanta Center
Tue 04:37:31 PM 34.4514 -82.5753 25° Northeast 248 285 10,600 -1,050 Descending Atlanta Center
Tue 04:38:31 PM 34.5072 -82.5414 27° Northeast 234 269 8,900 -1,650 Descending Atlanta Center
Tue 04:39:31 PM 34.5672 -82.5075 25° Northeast 234 269 7,300 -1,600 Descending Atlanta Center
Tue 04:40:31 PM 34.6233 -82.4789 23° Northeast 234 269 5,700 -1,550 Descending Atlanta Center
Tue 04:41:31 PM 34.6814 -82.4475 24° Northeast 234 269 4,200 -1,350 Descending Atlanta Center
Tue 04:42:31 PM 34.7353 -82.4136 27° Northeast 229 264 3,000 -1,200 Descending Atlanta Center
Tue 04:44:00 PM 34.8143 -82.3595 22° Northeast  Level FlightAware Approximate
Tue 04:51:00 PM 34.8333 -82.3500 22° Northeast  Level FlightAware Approximate
Tue 04:52:00 PM 34.8479 -82.3500 22° Northeast  Level Estimated
Tue 04:53:00 PM 34.8479 -82.3500 22° Northeast  Level Estimated
Tue 04:54:00 PM 34.8479 -82.3500 22° Northeast  Level Estimated
Tue 04:55:00 PM 34.8479 -82.3500 22° Northeast  Level Estimated

Login

Don't have an account? Register now (free) for customized features, flight alerts, and more!